Time;durP1;ratioP1;P1;durP2;ratioP2;P2;SDS_P1;SDS_P2;PMS_P1;PMS_P2;Temp;Humidity;BMP_temperature;BMP_pressure;BME280_temperature;BME280_humidity;BME280_pressure;Samples;Min_cycle;Max_cycle;Signal;HPM_P1;HPM_P2
2023/10/01 00:00:11;;;;;;;15.30;5.70;;;;;;;;;;5023346;28;20477;-74
2023/10/01 00:02:37;;;;;;;9.13;4.60;;;;;;;;;;5028607;28;20025;-74
2023/10/01 00:05:03;;;;;;;17.42;5.60;;;;;;;;;;5022751;28;20010;-74
2023/10/01 00:07:28;;;;;;;14.88;4.85;;;;;;;;;;5020999;28;20057;-74
2023/10/01 00:09:53;;;;;;;13.68;6.13;;;;;;;;;;5029147;28;20060;-74
2023/10/01 00:12:19;;;;;;;19.17;6.18;;;;;;;;;;5028543;28;20064;-74
2023/10/01 00:14:44;;;;;;;13.32;6.13;;;;;;;;;;5022148;28;20481;-74
2023/10/01 00:17:09;;;;;;;15.82;6.07;;;;;;;;;;5027807;28;20068;-74
2023/10/01 00:19:35;;;;;;;9.37;4.87;;;;;;;;;;5029741;28;20072;-74
2023/10/01 00:22:00;;;;;;;18.85;5.93;;;;;;;;;;5028008;28;20295;-74
2023/10/01 00:24:25;;;;;;;13.35;6.13;;;;;;;;;;5018826;28;20050;-74
2023/10/01 00:26:52;;;;;;;14.27;5.22;;;;;;;;;;5021706;28;20049;-74
2023/10/01 00:29:17;;;;;;;10.98;5.25;;;;;;;;;;5017542;28;20021;-74
2023/10/01 00:31:42;;;;;;;10.07;5.05;;;;;;;;;;5027649;28;21115;-74
2023/10/01 00:34:08;;;;;;;12.27;5.43;;;;;;;;;;5022834;28;20465;-74
2023/10/01 00:36:35;;;;;;;17.35;7.25;;;;;;;;;;5023876;28;20711;-74
2023/10/01 00:39:02;;;;;;;10.55;5.55;;;;;;;;;;5036763;28;20495;-74
2023/10/01 00:41:28;;;;;;;10.68;5.40;;;;;;;;;;5034555;28;20032;-74
2023/10/01 00:43:55;;;;;;;15.57;4.97;;;;;;;;;;5035158;28;20021;-74
2023/10/01 00:46:20;;;;;;;13.30;5.05;;;;;;;;;;5028879;28;20122;-74
2023/10/01 00:48:46;;;;;;;20.40;6.10;;;;;;;;;;5023386;28;20117;-74
2023/10/01 00:51:11;;;;;;;15.13;5.72;;;;;;;;;;5017600;28;20277;-71
2023/10/01 00:53:38;;;;;;;9.67;4.93;;;;;;;;;;5023614;28;20029;-71
2023/10/01 00:56:04;;;;;;;13.55;5.18;;;;;;;;;;5021193;28;20272;-71
2023/10/01 00:58:29;;;;;;;16.85;5.93;;;;;;;;;;5029101;28;20025;-71
2023/10/01 01:00:55;;;;;;;15.43;5.40;;;;;;;;;;5024115;28;20166;-71
2023/10/01 01:03:22;;;;;;;15.75;6.20;;;;;;;;;;5024659;28;20268;-71
2023/10/01 01:08:46;;;;;;;10.63;4.75;;;;;;;;;;5025063;28;20050;-71
2023/10/01 01:11:12;;;;;;;14.88;6.32;;;;;;;;;;5027872;28;20057;-70
2023/10/01 01:13:38;;;;;;;10.60;4.70;;;;;;;;;;5028003;28;20014;-70
2023/10/01 01:16:05;;;;;;;13.68;4.90;;;;;;;;;;5029843;28;20100;-71
2023/10/01 01:18:34;;;;;;;11.90;6.20;;;;;;;;;;5027877;28;20365;-71
2023/10/01 01:21:05;;;;;;;15.35;5.82;;;;;;;;;;5029753;28;20071;-71
2023/10/01 01:23:31;;;;;;;9.23;5.68;;;;;;;;;;5028384;28;20024;-70
2023/10/01 01:25:56;;;;;;;14.82;5.60;;;;;;;;;;5028758;28;20388;-70
2023/10/01 01:28:27;;;;;;;14.73;6.30;;;;;;;;;;5029799;28;20079;-70
2023/10/01 01:30:53;;;;;;;14.52;5.80;;;;;;;;;;5019801;28;20473;-70
2023/10/01 01:33:21;;;;;;;14.90;5.82;;;;;;;;;;5019407;28;20032;-71
2023/10/01 01:35:49;;;;;;;10.82;5.10;;;;;;;;;;5021258;28;20056;-70
2023/10/01 01:38:15;;;;;;;17.90;5.65;;;;;;;;;;5023543;28;20022;-70
2023/10/01 01:40:42;;;;;;;12.00;5.75;;;;;;;;;;5023756;28;20525;-71
2023/10/01 01:43:21;;;;;;;12.95;5.50;;;;;;;;;;5030011;28;20013;-71
2023/10/01 01:45:47;;;;;;;15.68;5.22;;;;;;;;;;5035578;28;20045;-71
2023/10/01 01:48:21;;;;;;;13.02;5.00;;;;;;;;;;5036820;28;20025;-71
2023/10/01 01:50:49;;;;;;;17.42;5.43;;;;;;;;;;5026484;28;20325;-70
2023/10/01 01:53:14;;;;;;;10.88;4.80;;;;;;;;;;5030172;28;20396;-71
2023/10/01 01:55:41;;;;;;;20.60;6.40;;;;;;;;;;5028957;28;20021;-71
2023/10/01 01:58:08;;;;;;;12.45;5.05;;;;;;;;;;5030953;28;20877;-71
2023/10/01 02:00:35;;;;;;;19.10;5.68;;;;;;;;;;5028362;28;20037;-71
2023/10/01 02:03:14;;;;;;;18.55;6.78;;;;;;;;;;5031009;28;20117;-70
2023/10/01 02:05:47;;;;;;;17.57;5.27;;;;;;;;;;5032019;28;20029;-70
2023/10/01 02:08:23;;;;;;;17.30;6.05;;;;;;;;;;5027853;28;20430;-71
2023/10/01 02:10:53;;;;;;;18.00;6.28;;;;;;;;;;5026977;28;20033;-71
2023/10/01 02:13:18;;;;;;;15.93;6.35;;;;;;;;;;5032452;28;20013;-73
2023/10/01 02:15:46;;;;;;;12.52;5.38;;;;;;;;;;5020775;28;20033;-73
2023/10/01 02:18:16;;;;;;;11.45;5.18;;;;;;;;;;5019397;28;20018;-73
2023/10/01 02:20:44;;;;;;;16.77;5.15;;;;;;;;;;5024171;28;20113;-73
2023/10/01 02:23:12;;;;;;;22.02;6.13;;;;;;;;;;5021075;28;20014;-71
2023/10/01 02:25:38;;;;;;;14.10;6.07;;;;;;;;;;5017011;28;20384;-71
2023/10/01 02:28:10;;;;;;;19.98;6.13;;;;;;;;;;5029224;28;20021;-71
2023/10/01 02:30:35;;;;;;;14.23;6.07;;;;;;;;;;5017783;28;20021;-71
2023/10/01 02:33:17;;;;;;;11.43;5.33;;;;;;;;;;5021084;28;20025;-71
2023/10/01 02:35:42;;;;;;;12.25;6.00;;;;;;;;;;5021941;28;20244;-71
2023/10/01 02:38:36;;;;;;;17.88;5.97;;;;;;;;;;5020166;28;20018;-71
2023/10/01 02:40:57;;;;;;;11.10;5.07;;;;;;;;;;5031324;28;20520;-71
2023/10/01 02:43:24;;;;;;;13.65;6.35;;;;;;;;;;5030474;28;20013;-71
2023/10/01 02:45:50;;;;;;;16.45;6.55;;;;;;;;;;5028951;28;20080;-71
2023/10/01 02:48:18;;;;;;;18.20;6.03;;;;;;;;;;5037808;28;20021;-71
2023/10/01 02:50:45;;;;;;;15.57;5.45;;;;;;;;;;5028464;28;20053;-71
2023/10/01 02:53:11;;;;;;;14.57;6.85;;;;;;;;;;5029618;28;20388;-71
2023/10/01 02:55:44;;;;;;;12.25;5.70;;;;;;;;;;5029336;28;20026;-71
2023/10/01 02:58:17;;;;;;;10.95;5.68;;;;;;;;;;5035393;28;20018;-71
2023/10/01 03:00:43;;;;;;;11.93;5.60;;;;;;;;;;5036423;28;20013;-71
2023/10/01 03:03:14;;;;;;;10.57;5.40;;;;;;;;;;5035368;28;20029;-71
2023/10/01 03:05:42;;;;;;;16.55;5.82;;;;;;;;;;5025476;28;20431;-71
2023/10/01 03:08:11;;;;;;;17.10;5.70;;;;;;;;;;5045291;28;20021;-71
2023/10/01 03:10:38;;;;;;;26.60;8.02;;;;;;;;;;5033603;28;20018;-71
2023/10/01 03:13:14;;;;;;;12.27;5.47;;;;;;;;;;5031335;28;20025;-71
2023/10/01 03:15:41;;;;;;;13.38;6.07;;;;;;;;;;5025197;28;20392;-71
2023/10/01 03:18:08;;;;;;;18.27;6.95;;;;;;;;;;5028400;28;20021;-71
2023/10/01 03:23:03;;;;;;;13.77;6.20;;;;;;;;;;5032338;28;20088;-71
2023/10/01 03:25:42;;;;;;;12.70;5.75;;;;;;;;;;5032568;28;20109;-71
2023/10/01 03:28:26;;;;;;;11.45;4.95;;;;;;;;;;5026054;28;20480;-72
2023/10/01 03:31:06;;;;;;;16.75;5.32;;;;;;;;;;5029866;28;20477;-72
2023/10/01 03:33:32;;;;;;;11.40;5.22;;;;;;;;;;5025319;28;20021;-72
2023/10/01 03:35:57;;;;;;;11.43;5.60;;;;;;;;;;5036269;28;20037;-72
2023/10/01 03:38:23;;;;;;;14.90;5.70;;;;;;;;;;5031919;28;20013;-72
2023/10/01 03:43:42;;;;;;;19.05;6.45;;;;;;;;;;5026631;28;20155;-72
2023/10/01 03:46:14;;;;;;;13.95;6.35;;;;;;;;;;5025449;28;20112;-72
2023/10/01 03:48:58;;;;;;;15.02;5.65;;;;;;;;;;5031490;28;20075;-72
2023/10/01 03:54:19;;;;;;;15.18;5.88;;;;;;;;;;5023264;28;20120;-72
2023/10/01 03:56:47;;;;;;;13.65;5.45;;;;;;;;;;5029173;28;20092;-72
2023/10/01 03:59:16;;;;;;;13.80;6.07;;;;;;;;;;5025283;28;20017;-72
2023/10/01 04:01:59;;;;;;;10.15;5.22;;;;;;;;;;5029765;28;20013;-73
2023/10/01 04:04:27;;;;;;;16.00;5.80;;;;;;;;;;5028004;28;20028;-72
2023/10/01 04:06:54;;;;;;;21.67;6.45;;;;;;;;;;5029409;28;20024;-72
2023/10/01 04:09:19;;;;;;;11.73;5.63;;;;;;;;;;5030060;28;20017;-72
2023/10/01 04:11:51;;;;;;;12.40;4.50;;;;;;;;;;5027417;28;20508;-71
2023/10/01 04:14:17;;;;;;;13.45;5.22;;;;;;;;;;5020430;28;20028;-71
2023/10/01 04:16:48;;;;;;;18.33;6.00;;;;;;;;;;5029849;28;20048;-71
2023/10/01 04:19:18;;;;;;;14.35;5.68;;;;;;;;;;5023800;28;20116;-71
2023/10/01 04:21:43;;;;;;;13.00;5.17;;;;;;;;;;5028464;28;20013;-72
2023/10/01 04:24:08;;;;;;;10.27;5.00;;;;;;;;;;5030354;28;20275;-71
2023/10/01 04:26:35;;;;;;;10.88;4.63;;;;;;;;;;5029886;28;20037;-71
2023/10/01 04:29:01;;;;;;;14.27;4.82;;;;;;;;;;5029512;28;20029;-71
2023/10/01 04:34:11;;;;;;;11.63;4.65;;;;;;;;;;5028905;28;20087;-71
2023/10/01 04:36:38;;;;;;;9.02;4.32;;;;;;;;;;5030310;28;20427;-72
2023/10/01 04:39:03;;;;;;;13.20;4.60;;;;;;;;;;5029877;28;20060;-71
2023/10/01 04:41:28;;;;;;;11.75;5.00;;;;;;;;;;5028797;28;20045;-71
2023/10/01 04:44:03;;;;;;;10.83;4.90;;;;;;;;;;5028405;28;20024;-72
2023/10/01 04:46:29;;;;;;;13.02;5.25;;;;;;;;;;5029294;28;20269;-72
2023/10/01 04:48:55;;;;;;;8.23;4.43;;;;;;;;;;5029916;28;20445;-72
2023/10/01 04:51:21;;;;;;;10.57;4.70;;;;;;;;;;5027984;28;20021;-72
2023/10/01 04:53:47;;;;;;;12.32;5.00;;;;;;;;;;5030477;28;20059;-72
2023/10/01 04:56:20;;;;;;;13.73;4.93;;;;;;;;;;5027996;28;20028;-72
2023/10/01 04:58:46;;;;;;;12.27;4.93;;;;;;;;;;5026033;28;20030;-72
2023/10/01 05:01:11;;;;;;;9.57;4.80;;;;;;;;;;5026396;28;20493;-72
2023/10/01 05:03:40;;;;;;;12.35;5.03;;;;;;;;;;5028098;28;20063;-72
2023/10/01 05:06:06;;;;;;;14.48;4.80;;;;;;;;;;5030021;28;20022;-72
2023/10/01 05:08:38;;;;;;;10.98;4.82;;;;;;;;;;5028447;28;20021;-72
2023/10/01 05:11:03;;;;;;;9.52;5.25;;;;;;;;;;5028848;28;20489;-72
2023/10/01 05:13:31;;;;;;;12.43;5.00;;;;;;;;;;5029927;28;20033;-72
2023/10/01 05:15:56;;;;;;;16.27;6.95;;;;;;;;;;5028691;28;20042;-72
2023/10/01 05:18:22;;;;;;;12.65;5.60;;;;;;;;;;5028542;28;20033;-72
2023/10/01 05:20:48;;;;;;;13.45;5.40;;;;;;;;;;5027089;28;20029;-72
2023/10/01 05:23:14;;;;;;;16.27;5.38;;;;;;;;;;5028414;28;20025;-72
2023/10/01 05:25:45;;;;;;;15.35;5.30;;;;;;;;;;5029957;28;20361;-72
2023/10/01 05:28:23;;;;;;;9.80;4.45;;;;;;;;;;5027731;28;20032;-72
2023/10/01 05:30:56;;;;;;;11.20;4.75;;;;;;;;;;5024608;28;20492;-72
2023/10/01 05:33:24;;;;;;;13.20;4.72;;;;;;;;;;5029654;28;20037;-72
2023/10/01 05:35:52;;;;;;;10.18;4.88;;;;;;;;;;5028340;28;20025;-72
2023/10/01 05:38:17;;;;;;;11.30;5.22;;;;;;;;;;5029392;28;20365;-72
2023/10/01 05:40:44;;;;;;;12.55;4.93;;;;;;;;;;5028866;28;20104;-72
2023/10/01 05:43:15;;;;;;;13.13;5.25;;;;;;;;;;5026638;28;20025;-72
2023/10/01 05:45:52;;;;;;;12.18;4.35;;;;;;;;;;5028821;28;20006;-72
2023/10/01 05:48:22;;;;;;;13.00;4.63;;;;;;;;;;5029103;28;20032;-72
2023/10/01 05:50:49;;;;;;;12.13;5.43;;;;;;;;;;5026189;28;20033;-72
2023/10/01 05:53:14;;;;;;;13.35;4.97;;;;;;;;;;5028931;28;20080;-72
2023/10/01 05:55:41;;;;;;;10.43;4.80;;;;;;;;;;5031125;28;20443;-72
2023/10/01 05:58:16;;;;;;;16.90;5.22;;;;;;;;;;5027452;28;20017;-72
2023/10/01 06:00:45;;;;;;;13.10;4.88;;;;;;;;;;5029038;28;20021;-72
2023/10/01 06:03:13;;;;;;;11.60;4.50;;;;;;;;;;5025397;28;20017;-72
2023/10/01 06:08:17;;;;;;;14.82;5.50;;;;;;;;;;5025464;28;20064;-72
2023/10/01 06:10:48;;;;;;;11.73;4.78;;;;;;;;;;5027008;28;20451;-72
2023/10/01 06:13:16;;;;;;;13.43;4.57;;;;;;;;;;5027745;28;20036;-72
2023/10/01 06:15:42;;;;;;;13.80;5.10;;;;;;;;;;5029224;28;20022;-72
2023/10/01 06:18:07;;;;;;;11.00;4.35;;;;;;;;;;5024751;28;20299;-72
2023/10/01 06:20:33;;;;;;;14.80;4.83;;;;;;;;;;5029002;28;20028;-72
2023/10/01 06:22:59;;;;;;;18.00;6.25;;;;;;;;;;5036279;28;20406;-72
2023/10/01 06:25:53;;;;;;;14.88;5.35;;;;;;;;;;5032466;28;20021;-72
2023/10/01 06:28:20;;;;;;;10.35;4.30;;;;;;;;;;5034029;28;20029;-72
2023/10/01 06:30:46;;;;;;;11.80;4.82;;;;;;;;;;5031257;28;20017;-72
2023/10/01 06:33:26;;;;;;;16.95;5.03;;;;;;;;;;5033232;28;20024;-72
2023/10/01 06:38:38;;;;;;;16.15;4.82;;;;;;;;;;5035364;28;20034;-72
2023/10/01 06:41:06;;;;;;;10.80;4.53;;;;;;;;;;5034094;28;20022;-72
2023/10/01 06:43:32;;;;;;;10.07;4.93;;;;;;;;;;5031543;28;20018;-72
2023/10/01 06:45:59;;;;;;;10.20;4.32;;;;;;;;;;5030131;28;20025;-72
2023/10/01 06:48:24;;;;;;;11.57;4.30;;;;;;;;;;5032521;28;20028;-72
2023/10/01 06:50:49;;;;;;;11.70;4.17;;;;;;;;;;5032126;28;20396;-72
2023/10/01 06:53:14;;;;;;;10.82;4.40;;;;;;;;;;5032385;28;20276;-72
2023/10/01 06:55:41;;;;;;;8.90;3.72;;;;;;;;;;5034758;28;20020;-72
2023/10/01 06:58:10;;;;;;;;;;;;;;;;;;5035889;28;20032;-72
2023/10/01 07:00:35;;;;;;;16.67;3.70;;;;;;;;;;5031701;28;19909;-72
2023/10/01 07:05:46;;;;;;;13.02;4.90;;;;;;;;;;5032195;28;20071;-72
2023/10/01 07:08:11;;;;;;;8.98;4.13;;;;;;;;;;5036872;28;20040;-72
2023/10/01 07:10:37;;;;;;;10.18;4.35;;;;;;;;;;5035322;28;20021;-72
2023/10/01 07:13:05;;;;;;;12.75;4.30;;;;;;;;;;5039898;28;20503;-72
2023/10/01 07:15:32;;;;;;;10.98;4.00;;;;;;;;;;5029553;28;20026;-72
2023/10/01 07:17:58;;;;;;;6.45;3.50;;;;;;;;;;5033081;28;20520;-72
2023/10/01 07:20:24;;;;;;;16.13;4.38;;;;;;;;;;5030626;28;20531;-72
2023/10/01 07:22:51;;;;;;;14.43;4.05;;;;;;;;;;5029373;28;20030;-72
2023/10/01 07:25:28;;;;;;;14.07;4.90;;;;;;;;;;5038845;28;20032;-72
2023/10/01 07:27:56;;;;;;;11.10;3.95;;;;;;;;;;5036804;28;20026;-72
2023/10/01 07:30:39;;;;;;;11.05;4.45;;;;;;;;;;5028796;28;20013;-72
2023/10/01 07:33:04;;;;;;;11.00;4.82;;;;;;;;;;5032677;28;20353;-72
2023/10/01 07:35:29;;;;;;;17.40;3.90;;;;;;;;;;5033486;28;20020;-73
2023/10/01 07:37:55;;;;;;;13.63;5.27;;;;;;;;;;5033997;28;20476;-73
2023/10/01 07:40:23;;;;;;;15.70;5.13;;;;;;;;;;5033105;28;20020;-73
2023/10/01 07:42:49;;;;;;;11.13;4.13;;;;;;;;;;5035972;28;20388;-73
2023/10/01 07:45:16;;;;;;;11.23;4.30;;;;;;;;;;5042102;28;20020;-73
2023/10/01 07:47:42;;;;;;;9.85;3.47;;;;;;;;;;5033308;28;20017;-73
2023/10/01 07:50:12;;;;;;;17.10;4.00;;;;;;;;;;5036812;28;20032;-73
2023/10/01 07:52:40;;;;;;;4.85;2.13;;;;;;;;;;5028911;28;20021;-73
2023/10/01 07:55:29;;;;;;;11.02;4.20;;;;;;;;;;5037474;28;20021;-73
2023/10/01 07:57:51;;;;;;;12.82;4.40;;;;;;;;;;5026858;28;20044;-73
2023/10/01 08:00:26;;;;;;;8.35;3.33;;;;;;;;;;5021526;28;20029;-73
2023/10/01 08:05:38;;;;;;;10.30;3.65;;;;;;;;;;5027851;28;20152;-73
2023/10/01 08:08:04;;;;;;;9.82;4.30;;;;;;;;;;5025832;28;20021;-73
2023/10/01 08:10:29;;;;;;;14.95;4.05;;;;;;;;;;5027295;28;20040;-73
2023/10/01 08:15:29;;;;;;;14.90;3.80;;;;;;;;;;5027934;28;20029;-73
2023/10/01 08:18:19;;;;;;;7.72;3.03;;;;;;;;;;5024948;28;20627;-73
2023/10/01 08:20:58;;;;;;;9.40;3.22;;;;;;;;;;5024326;28;20030;-73
2023/10/01 08:23:24;;;;;;;11.70;3.97;;;;;;;;;;5021343;28;20806;-73
2023/10/01 08:25:55;;;;;;;13.13;3.30;;;;;;;;;;5024002;28;20567;-73
2023/10/01 08:30:49;;;;;;;11.48;4.90;;;;;;;;;;5023761;28;20469;-73
2023/10/01 08:33:32;;;;;;;14.15;4.15;;;;;;;;;;5026224;28;20143;-73
2023/10/01 08:36:01;;;;;;;13.57;4.70;;;;;;;;;;5023484;28;20520;-73
2023/10/01 08:38:34;;;;;;;14.32;5.30;;;;;;;;;;5025867;28;20511;-73
2023/10/01 08:41:02;;;;;;;11.85;4.80;;;;;;;;;;5025872;28;20092;-73
2023/10/01 08:43:30;;;;;;;11.13;4.82;;;;;;;;;;5024201;28;20039;-73
2023/10/01 08:45:57;;;;;;;11.55;5.25;;;;;;;;;;5021824;28;20396;-72
2023/10/01 08:48:23;;;;;;;13.30;4.68;;;;;;;;;;5025443;28;20049;-73
2023/10/01 08:50:49;;;;;;;13.23;4.10;;;;;;;;;;5026850;28;20690;-73
2023/10/01 08:53:16;;;;;;;11.95;3.67;;;;;;;;;;5020612;28;20026;-73
2023/10/01 09:00:51;;;;;;;12.52;3.40;;;;;;;;;;5019192;28;20068;-73
2023/10/01 09:03:26;;;;;;;14.48;5.53;;;;;;;;;;5022158;28;20021;-73
2023/10/01 09:06:01;;;;;;;14.63;5.38;;;;;;;;;;5024546;28;20068;-72
2023/10/01 09:08:31;;;;;;;18.90;5.15;;;;;;;;;;5022208;28;20479;-72
2023/10/01 09:10:56;;;;;;;9.75;3.95;;;;;;;;;;5027344;28;20458;-73
2023/10/01 09:13:22;;;;;;;15.17;5.80;;;;;;;;;;5029330;28;20100;-72
2023/10/01 09:15:47;;;;;;;12.70;4.72;;;;;;;;;;5037284;28;20288;-73
2023/10/01 09:18:20;;;;;;;15.10;5.57;;;;;;;;;;5032882;28;20029;-72
2023/10/01 09:21:06;;;;;;;14.10;5.40;;;;;;;;;;5021220;28;20013;-72
2023/10/01 09:23:54;;;;;;;12.43;5.28;;;;;;;;;;5031384;28;20053;-72
2023/10/01 09:26:37;;;;;;;9.38;3.53;;;;;;;;;;5029313;28;20092;-72
2023/10/01 09:29:12;;;;;;;12.57;4.22;;;;;;;;;;5033175;28;20439;-72
2023/10/01 09:31:52;;;;;;;17.20;5.68;;;;;;;;;;5030242;28;20026;-72
2023/10/01 09:34:31;;;;;;;15.95;4.95;;;;;;;;;;5025964;28;20049;-72
2023/10/01 09:36:56;;;;;;;14.43;4.93;;;;;;;;;;5016930;28;20059;-73
2023/10/01 09:39:33;;;;;;;13.05;5.28;;;;;;;;;;5024481;28;20866;-72
2023/10/01 09:41:59;;;;;;;9.10;3.35;;;;;;;;;;5020107;28;20017;-72
2023/10/01 09:44:27;;;;;;;8.90;3.03;;;;;;;;;;5029230;28;20518;-72
2023/10/01 09:47:07;;;;;;;12.93;4.75;;;;;;;;;;5030761;28;20021;-72
2023/10/01 09:49:32;;;;;;;14.40;5.78;;;;;;;;;;5028155;28;20424;-72
2023/10/01 09:51:59;;;;;;;15.07;5.47;;;;;;;;;;5028868;28;20032;-72
2023/10/01 09:54:28;;;;;;;17.27;6.05;;;;;;;;;;5025070;28;20033;-72
2023/10/01 09:56:54;;;;;;;13.35;5.28;;;;;;;;;;5025535;28;20366;-72
2023/10/01 09:59:20;;;;;;;4.43;1.98;;;;;;;;;;5022255;28;20028;-72
2023/10/01 10:01:45;;;;;;;18.77;6.05;;;;;;;;;;5025155;28;20372;-72
2023/10/01 10:04:11;;;;;;;14.07;5.38;;;;;;;;;;5028022;28;20017;-72
2023/10/01 10:06:39;;;;;;;18.00;6.03;;;;;;;;;;5031057;28;20543;-72
2023/10/01 10:09:07;;;;;;;15.05;5.22;;;;;;;;;;5027812;28;20254;-72
2023/10/01 10:11:36;;;;;;;13.65;5.80;;;;;;;;;;5029743;28;20385;-72
2023/10/01 10:14:26;;;;;;;19.90;5.25;;;;;;;;;;5029925;28;20384;-72
2023/10/01 10:17:07;;;;;;;15.40;5.68;;;;;;;;;;5040949;28;20634;-72
2023/10/01 10:19:47;;;;;;;15.18;5.88;;;;;;;;;;5028607;28;20017;-72
2023/10/01 10:22:12;;;;;;;;;;;;;;;;;;5029373;28;20075;-72
2023/10/01 10:24:47;;;;;;;13.90;4.97;;;;;;;;;;5025156;28;19909;-71
2023/10/01 10:27:17;;;;;;;14.57;5.65;;;;;;;;;;5023232;28;20244;-72
2023/10/01 10:29:58;;;;;;;25.85;6.53;;;;;;;;;;5029084;28;20021;-72
2023/10/01 10:32:24;;;;;;;12.68;4.80;;;;;;;;;;5026273;28;20099;-72
2023/10/01 10:35:04;;;;;;;13.63;5.75;;;;;;;;;;5026915;28;20484;-72
2023/10/01 10:37:36;;;;;;;14.32;5.45;;;;;;;;;;5021462;28;20388;-72
2023/10/01 10:42:46;;;;;;;17.45;6.22;;;;;;;;;;5023597;28;20027;-72
2023/10/01 10:45:20;;;;;;;13.10;5.50;;;;;;;;;;5028203;28;20079;-72
2023/10/01 10:47:58;;;;;;;19.38;6.38;;;;;;;;;;5031874;28;20123;-72
2023/10/01 10:50:45;;;;;;;17.25;5.07;;;;;;;;;;5027459;28;20010;-72
2023/10/01 10:53:20;;;;;;;17.15;6.43;;;;;;;;;;5021367;28;20021;-72
2023/10/01 10:56:02;;;;;;;10.43;4.30;;;;;;;;;;5024376;28;20031;-72
2023/10/01 10:58:46;;;;;;;17.75;6.63;;;;;;;;;;5021366;28;20049;-72
2023/10/01 11:01:15;;;;;;;13.93;6.10;;;;;;;;;;5018875;28;20019;-72
2023/10/01 11:03:41;;;;;;;17.20;5.40;;;;;;;;;;5024041;28;20033;-72
2023/10/01 11:06:17;;;;;;;16.77;5.70;;;;;;;;;;5018026;28;20049;-72
2023/10/01 11:08:52;;;;;;;14.65;5.82;;;;;;;;;;5027950;28;20021;-72
2023/10/01 11:11:44;;;;;;;15.65;5.55;;;;;;;;;;5032019;28;20024;-72
2023/10/01 11:14:15;;;;;;;20.90;6.10;;;;;;;;;;5028661;28;20538;-72
2023/10/01 11:16:44;;;;;;;19.05;6.53;;;;;;;;;;5024934;28;20085;-72
2023/10/01 11:19:13;;;;;;;18.70;5.40;;;;;;;;;;5026276;28;20039;-72
2023/10/01 11:21:44;;;;;;;18.83;6.63;;;;;;;;;;5025586;28;20549;-72
2023/10/01 11:24:09;;;;;;;20.95;6.40;;;;;;;;;;5029941;28;20465;-72
2023/10/01 11:26:35;;;;;;;17.08;6.68;;;;;;;;;;5020612;28;20109;-72
2023/10/01 11:29:00;;;;;;;16.37;5.90;;;;;;;;;;5029927;28;20021;-72
2023/10/01 11:31:27;;;;;;;16.70;6.25;;;;;;;;;;5026904;28;20026;-72
2023/10/01 11:33:59;;;;;;;15.68;6.10;;;;;;;;;;5025104;28;20455;-72
2023/10/01 11:36:35;;;;;;;16.38;5.60;;;;;;;;;;5020277;28;20044;-72
2023/10/01 11:39:03;;;;;;;17.80;6.63;;;;;;;;;;5028324;28;20021;-72
2023/10/01 11:41:38;;;;;;;15.73;6.70;;;;;;;;;;5029733;28;20017;-72
2023/10/01 11:44:05;;;;;;;17.42;6.57;;;;;;;;;;5025238;28;20030;-72
2023/10/01 11:46:32;;;;;;;21.40;6.20;;;;;;;;;;5021848;28;20030;-71
2023/10/01 11:49:04;;;;;;;15.73;6.22;;;;;;;;;;5027104;28;20033;-72
2023/10/01 11:51:32;;;;;;;16.67;5.78;;;;;;;;;;5027719;28;20104;-72
2023/10/01 11:53:58;;;;;;;21.02;6.20;;;;;;;;;;5017153;28;20098;-72
2023/10/01 11:56:23;;;;;;;15.82;6.15;;;;;;;;;;5021172;28;20026;-72
2023/10/01 11:58:48;;;;;;;19.63;4.30;;;;;;;;;;5018855;28;20408;-72
2023/10/01 12:01:13;;;;;;;22.33;6.87;;;;;;;;;;5024898;28;20024;-71
2023/10/01 12:03:39;;;;;;;22.20;8.05;;;;;;;;;;5027761;28;20431;-71
2023/10/01 12:06:04;;;;;;;18.47;6.40;;;;;;;;;;5022932;28;20033;-72
2023/10/01 12:08:35;;;;;;;19.30;7.70;;;;;;;;;;5030842;28;20381;-72
2023/10/01 12:11:26;;;;;;;17.58;5.93;;;;;;;;;;5024418;28;20068;-72
2023/10/01 12:14:04;;;;;;;21.48;5.82;;;;;;;;;;5028404;28;20029;-73
2023/10/01 12:16:30;;;;;;;20.70;6.40;;;;;;;;;;5025705;28;20392;-71
2023/10/01 12:19:17;;;;;;;15.35;6.70;;;;;;;;;;5026369;28;20029;-72
2023/10/01 12:21:40;;;;;;;18.00;5.65;;;;;;;;;;5027393;28;20018;-73
2023/10/01 12:24:12;;;;;;;10.40;4.13;;;;;;;;;;5031491;28;20475;-73
2023/10/01 12:26:38;;;;;;;18.02;7.70;;;;;;;;;;5034015;28;20618;-72
2023/10/01 12:29:13;;;;;;;17.40;6.47;;;;;;;;;;5029682;28;20021;-72
2023/10/01 12:31:44;;;;;;;22.23;9.02;;;;;;;;;;5026182;28;20071;-73
2023/10/01 12:34:09;;;;;;;17.67;7.18;;;;;;;;;;5024751;28;20106;-73
2023/10/01 12:36:47;;;;;;;24.83;7.40;;;;;;;;;;5033401;28;20628;-73
2023/10/01 12:42:14;;;;;;;20.47;7.43;;;;;;;;;;5026604;28;20037;-72
2023/10/01 12:44:34;;;;;;;21.88;7.35;;;;;;;;;;5029708;28;20266;-72
2023/10/01 12:47:03;;;;;;;22.40;8.02;;;;;;;;;;5028311;28;20045;-72
2023/10/01 12:49:31;;;;;;;22.58;7.07;;;;;;;;;;5027160;28;20021;-73
2023/10/01 12:51:57;;;;;;;21.38;7.75;;;;;;;;;;5032187;28;20091;-73
2023/10/01 12:54:28;;;;;;;18.75;7.38;;;;;;;;;;5033098;28;20487;-73
2023/10/01 12:57:03;;;;;;;10.25;2.95;;;;;;;;;;5026075;28;20022;-73
2023/10/01 12:59:42;;;;;;;17.42;5.32;;;;;;;;;;5027086;28;20090;-72
2023/10/01 13:02:28;;;;;;;21.75;7.15;;;;;;;;;;5028537;28;20013;-73
2023/10/01 13:07:42;;;;;;;19.48;7.10;;;;;;;;;;5029141;28;20063;-73
2023/10/01 13:10:08;;;;;;;35.88;9.48;;;;;;;;;;5021667;28;20026;-73
2023/10/01 13:12:39;;;;;;;22.25;6.68;;;;;;;;;;5023265;28;20392;-73
2023/10/01 13:15:17;;;;;;;19.92;7.50;;;;;;;;;;5025278;28;20530;-73
2023/10/01 13:17:45;;;;;;;23.13;7.88;;;;;;;;;;5023610;28;20120;-73
2023/10/01 13:20:25;;;;;;;19.85;7.07;;;;;;;;;;5019095;28;20021;-72
2023/10/01 13:22:51;;;;;;;20.05;7.78;;;;;;;;;;5022672;28;20014;-73
2023/10/01 13:25:19;;;;;;;21.73;7.45;;;;;;;;;;5019694;28;20014;-74
2023/10/01 13:27:50;;;;;;;18.95;6.88;;;;;;;;;;5022048;28;20021;-73
2023/10/01 13:30:18;;;;;;;17.88;6.43;;;;;;;;;;5024747;28;20025;-73
2023/10/01 13:33:09;;;;;;;22.95;7.82;;;;;;;;;;5029133;28;20380;-73
2023/10/01 13:36:12;;;;;;;25.65;7.30;;;;;;;;;;5028299;28;20026;-73
2023/10/01 14:10:53;;;;;;;20.42;7.68;;;;;;;;;;5028376;28;20048;-73
2023/10/01 14:13:29;;;;;;;24.30;8.57;;;;;;;;;;5026460;28;20465;-73
2023/10/01 14:16:11;;;;;;;25.80;8.40;;;;;;;;;;5027166;28;20026;-73
2023/10/01 14:18:36;;;;;;;18.15;7.70;;;;;;;;;;5026382;28;20021;-73
2023/10/01 14:21:12;;;;;;;17.60;6.63;;;;;;;;;;5028020;28;20044;-74
2023/10/01 14:23:42;;;;;;;24.98;7.68;;;;;;;;;;5028137;28;20236;-74
2023/10/01 14:26:13;;;;;;;17.45;6.07;;;;;;;;;;5026767;28;20026;-74
2023/10/01 14:28:38;;;;;;;18.33;7.10;;;;;;;;;;5028950;28;20400;-73
2023/10/01 14:31:05;;;;;;;16.00;5.65;;;;;;;;;;5028674;28;20029;-73
2023/10/01 14:33:30;;;;;;;17.70;6.20;;;;;;;;;;5022355;28;20017;-73
2023/10/01 14:36:03;;;;;;;22.23;7.63;;;;;;;;;;5029021;28;20026;-73
2023/10/01 14:38:37;;;;;;;21.08;7.07;;;;;;;;;;5022003;28;20030;-73
2023/10/01 14:41:04;;;;;;;17.95;6.70;;;;;;;;;;5022114;28;20422;-73
2023/10/01 14:43:29;;;;;;;21.58;6.93;;;;;;;;;;5031952;28;20035;-74
2023/10/01 14:45:54;;;;;;;19.57;6.37;;;;;;;;;;5030310;28;20104;-74
2023/10/01 14:48:19;;;;;;;18.30;6.00;;;;;;;;;;5031294;28;20480;-73
2023/10/01 14:50:45;;;;;;;21.05;6.65;;;;;;;;;;5025544;28;20099;-74
2023/10/01 14:53:12;;;;;;;17.52;6.30;;;;;;;;;;5030095;28;20028;-73
2023/10/01 14:55:40;;;;;;;19.88;6.68;;;;;;;;;;5029236;28;20032;-73
2023/10/01 14:58:12;;;;;;;19.70;7.30;;;;;;;;;;5032114;28;20099;-73
2023/10/01 15:00:49;;;;;;;20.00;7.57;;;;;;;;;;5030629;28;20014;-73
2023/10/01 15:03:14;;;;;;;17.25;5.38;;;;;;;;;;5032297;28;20104;-74
2023/10/01 15:05:39;;;;;;;20.90;6.78;;;;;;;;;;5030652;28;20112;-73
2023/10/01 15:08:05;;;;;;;22.27;6.87;;;;;;;;;;5029696;28;20021;-74
2023/10/01 15:10:30;;;;;;;19.37;7.03;;;;;;;;;;5031218;28;20019;-73
2023/10/01 15:12:56;;;;;;;11.13;4.40;;;;;;;;;;5031286;28;20356;-74
2023/10/01 15:15:21;;;;;;;18.52;6.72;;;;;;;;;;5032808;28;20025;-74
2023/10/01 15:17:46;;;;;;;16.50;6.70;;;;;;;;;;5030029;28;20096;-73
2023/10/01 15:20:27;;;;;;;13.17;4.70;;;;;;;;;;5028944;28;20782;-73
2023/10/01 15:22:52;;;;;;;16.95;6.75;;;;;;;;;;5025886;28;20268;-73
2023/10/01 15:25:17;;;;;;;22.67;7.63;;;;;;;;;;5025949;28;20385;-74
2023/10/01 15:27:42;;;;;;;19.80;6.10;;;;;;;;;;5024224;28;20313;-74
2023/10/01 15:30:20;;;;;;;18.77;6.93;;;;;;;;;;5025225;28;20033;-73
2023/10/01 15:32:55;;;;;;;12.20;3.88;;;;;;;;;;5024938;28;20021;-73
2023/10/01 15:35:22;;;;;;;16.70;5.93;;;;;;;;;;5024908;28;20029;-74
2023/10/01 15:37:48;;;;;;;19.52;7.43;;;;;;;;;;5028725;28;20056;-73
2023/10/01 15:40:51;;;;;;;19.90;7.70;;;;;;;;;;5030945;28;20068;-74
2023/10/01 15:43:04;;;;;;;20.70;6.53;;;;;;;;;;5027621;28;20032;-74
2023/10/01 15:45:30;;;;;;;15.37;6.17;;;;;;;;;;5027053;28;20025;-73
2023/10/01 15:47:58;;;;;;;19.88;7.47;;;;;;;;;;5030820;28;20021;-74
2023/10/01 15:50:37;;;;;;;17.25;7.00;;;;;;;;;;5030120;28;20021;-73
2023/10/01 15:53:04;;;;;;;19.15;7.32;;;;;;;;;;5028559;28;20030;-73
2023/10/01 15:55:32;;;;;;;19.50;6.63;;;;;;;;;;5028148;28;20484;-74
2023/10/01 15:58:01;;;;;;;19.77;6.28;;;;;;;;;;5030922;28;20029;-73
2023/10/01 16:00:27;;;;;;;18.88;6.65;;;;;;;;;;5030937;28;20021;-73